createdAt,value
2024-02-07T00:00:25.895Z,10.42
2024-02-07T00:02:29.257Z,10.41
2024-02-07T00:04:32.983Z,10.39
2024-02-07T00:06:35.887Z,10.37
2024-02-07T00:08:41.271Z,10.34
2024-02-07T00:10:44.885Z,10.34
2024-02-07T00:12:48.307Z,10.31
2024-02-07T00:14:50.782Z,10.30
2024-02-07T00:16:54.204Z,10.27
2024-02-07T00:18:56.738Z,10.26
2024-02-07T00:21:01.008Z,10.22
2024-02-07T00:23:08.397Z,10.23
2024-02-07T00:25:13.168Z,10.21
2024-02-07T00:27:16.484Z,10.19
2024-02-07T00:29:20.361Z,10.18
2024-02-07T00:31:24.370Z,10.13
2024-02-07T00:33:27.729Z,10.10
2024-02-07T00:35:31.279Z,10.08
2024-02-07T00:37:34.996Z,10.05
2024-02-07T00:39:39.238Z,10.02
2024-02-07T00:41:43.825Z,9.99
2024-02-07T00:43:47.306Z,9.98
2024-02-07T00:45:52.321Z,9.94
2024-02-07T00:47:56.809Z,9.93
2024-02-07T00:50:00.449Z,9.91
2024-02-07T00:52:04.453Z,9.90
2024-02-07T00:54:09.703Z,9.88
2024-02-07T00:56:13.054Z,9.88
2024-02-07T00:58:19.057Z,9.86
2024-02-07T01:00:25.170Z,9.87
2024-02-07T01:02:27.648Z,9.88
2024-02-07T01:04:31.004Z,9.87
2024-02-07T01:06:34.513Z,9.85
2024-02-07T01:08:37.909Z,9.85
2024-02-07T01:10:43.310Z,9.83
2024-02-07T01:12:46.696Z,9.82
2024-02-07T01:14:51.361Z,9.79
2024-02-07T01:16:54.798Z,9.81
2024-02-07T01:18:58.124Z,9.81
2024-02-07T01:21:01.537Z,9.79
2024-02-07T01:23:05.280Z,9.81
2024-02-07T01:25:10.123Z,9.81
2024-02-07T01:27:13.919Z,9.79
2024-02-07T01:29:17.238Z,9.79
2024-02-07T01:31:23.484Z,9.78
2024-02-07T01:33:27.047Z,9.77
2024-02-07T01:35:32.436Z,9.77
2024-02-07T01:37:35.792Z,9.76
2024-02-07T01:39:38.051Z,9.76
2024-02-07T01:41:55.348Z,9.76
2024-02-07T01:43:58.647Z,9.77
2024-02-07T01:46:02.658Z,9.78
2024-02-07T01:48:09.841Z,9.78
2024-02-07T01:50:14.447Z,9.80
2024-02-07T01:52:22.556Z,9.83
2024-02-07T01:54:26.784Z,9.87
2024-02-07T01:56:30.905Z,9.90
2024-02-07T01:58:36.261Z,9.94
2024-02-07T02:00:38.902Z,9.98
2024-02-07T02:02:45.565Z,10.01
2024-02-07T02:04:50.250Z,10.05
2024-02-07T02:06:54.546Z,10.10
2024-02-07T02:08:59.220Z,10.13
2024-02-07T02:11:09.768Z,10.14
2024-02-07T02:13:12.565Z,10.18
2024-02-07T02:15:16.844Z,10.19
2024-02-07T02:17:20.191Z,10.21
2024-02-07T02:19:24.189Z,10.21
2024-02-07T02:21:39.239Z,10.23
2024-02-07T02:24:25.310Z,10.25
2024-02-07T02:26:51.090Z,10.27
2024-02-07T02:29:10.875Z,10.28
2024-02-07T02:31:18.292Z,10.32
2024-02-07T02:33:24.724Z,10.35
2024-02-07T02:35:29.708Z,10.36
2024-02-07T02:37:32.161Z,10.35
2024-02-07T02:39:35.489Z,10.34
2024-02-07T02:41:38.800Z,10.34
2024-02-07T02:43:42.552Z,10.36
2024-02-07T02:45:46.261Z,10.36
2024-02-07T02:47:51.027Z,10.35
2024-02-07T02:49:55.581Z,10.36
2024-02-07T02:51:59.049Z,10.35
2024-02-07T02:54:04.047Z,10.33
2024-02-07T02:56:10.782Z,10.31
2024-02-07T02:58:25.649Z,10.29
2024-02-07T03:00:36.622Z,10.25
2024-02-07T03:02:41.804Z,10.23
2024-02-07T03:04:50.231Z,10.22
2024-02-07T03:07:01.036Z,10.21
2024-02-07T03:09:20.719Z,10.20
2024-02-07T03:11:24.911Z,10.18
2024-02-07T03:13:29.379Z,10.15
2024-02-07T03:15:33.436Z,10.16
2024-02-07T03:17:38.026Z,10.15
2024-02-07T03:19:41.969Z,10.13
2024-02-07T03:21:47.785Z,10.12
2024-02-07T03:23:50.909Z,10.11
2024-02-07T03:25:54.337Z,10.11
2024-02-07T03:27:56.737Z,10.10
2024-02-07T03:30:00.331Z,10.08
2024-02-07T03:32:04.021Z,10.08
2024-02-07T03:34:07.962Z,10.06
2024-02-07T03:36:14.139Z,10.04
2024-02-07T03:38:19.449Z,10.02
2024-02-07T03:40:23.394Z,10.04
2024-02-07T03:42:27.505Z,10.07
2024-02-07T03:44:29.805Z,10.10
2024-02-07T03:46:33.432Z,10.12
2024-02-07T03:48:40.969Z,10.15
2024-02-07T03:50:44.944Z,10.17
2024-02-07T03:52:49.961Z,10.17
2024-02-07T03:54:54.933Z,10.18
2024-02-07T03:56:58.220Z,10.19
2024-02-07T03:59:00.768Z,10.19
2024-02-07T04:01:04.649Z,10.20
2024-02-07T04:03:10.357Z,10.19
2024-02-07T04:05:13.036Z,10.20
2024-02-07T04:07:16.601Z,10.19
2024-02-07T04:09:20.159Z,10.22
2024-02-07T04:11:25.479Z,10.21
2024-02-07T04:13:27.773Z,10.22
2024-02-07T04:15:48.473Z,10.21
2024-02-07T04:18:13.643Z,10.17
2024-02-07T04:20:35.114Z,10.14
2024-02-07T04:22:56.026Z,10.12
2024-02-07T04:25:17.097Z,10.12
2024-02-07T04:27:39.161Z,10.11
2024-02-07T04:30:00.906Z,10.11
2024-02-07T04:32:21.559Z,10.11
2024-02-07T04:34:42.299Z,10.11
2024-02-07T04:37:02.974Z,10.13
2024-02-07T04:39:25.382Z,10.13
2024-02-07T04:41:46.182Z,10.14
2024-02-07T04:44:08.715Z,10.16
2024-02-07T04:46:29.782Z,10.17
2024-02-07T04:48:50.673Z,10.21
2024-02-07T04:51:11.653Z,10.21
2024-02-07T04:53:32.402Z,10.23
2024-02-07T04:55:53.126Z,10.24
2024-02-07T04:58:15.325Z,10.24
2024-02-07T05:00:38.065Z,10.22
2024-02-07T05:02:58.724Z,10.21
2024-02-07T05:05:19.529Z,10.20
2024-02-07T05:07:41.683Z,10.20
2024-02-07T05:10:02.398Z,10.19
2024-02-07T05:12:23.757Z,10.18
2024-02-07T05:14:44.538Z,10.17
2024-02-07T05:16:49.485Z,10.15
2024-02-07T05:18:52.828Z,10.17
2024-02-07T05:20:56.281Z,10.19
2024-02-07T05:22:58.609Z,10.19
2024-02-07T05:25:03.542Z,10.17
2024-02-07T05:27:08.474Z,10.18
2024-02-07T05:29:16.857Z,10.18
2024-02-07T05:31:20.112Z,10.19
2024-02-07T05:33:24.885Z,10.19
2024-02-07T05:35:28.479Z,10.19
2024-02-07T05:37:32.609Z,10.21
2024-02-07T05:39:36.589Z,10.22
2024-02-07T05:41:40.379Z,10.22
2024-02-07T05:43:43.702Z,10.24
2024-02-07T05:45:47.046Z,10.26
2024-02-07T05:47:50.368Z,10.28
2024-02-07T05:49:55.376Z,10.28
2024-02-07T05:52:02.103Z,10.30
2024-02-07T05:54:06.975Z,10.30
2024-02-07T05:56:10.898Z,10.33
2024-02-07T05:58:15.177Z,10.36
2024-02-07T06:00:21.254Z,10.37
2024-02-07T06:02:23.720Z,10.38
2024-02-07T06:04:27.378Z,10.40
2024-02-07T06:06:32.095Z,10.42
2024-02-07T06:08:36.752Z,10.44
2024-02-07T06:10:41.662Z,10.46
2024-02-07T06:12:46.335Z,10.46
2024-02-07T06:14:49.784Z,10.47
2024-02-07T06:16:53.063Z,10.50
2024-02-07T06:18:56.505Z,10.50
2024-02-07T06:20:59.957Z,10.50
2024-02-07T06:23:05.120Z,10.47
2024-02-07T06:25:10.079Z,10.47
2024-02-07T06:27:14.084Z,10.47
2024-02-07T06:29:17.366Z,10.46
2024-02-07T06:31:21.491Z,10.47
2024-02-07T06:33:23.986Z,10.47
2024-02-07T06:35:27.578Z,10.47
2024-02-07T06:37:31.025Z,10.49
2024-02-07T06:39:34.714Z,10.49
2024-02-07T06:41:37.966Z,10.50
2024-02-07T06:43:41.335Z,10.50
2024-02-07T06:45:44.550Z,10.53
2024-02-07T06:47:47.290Z,10.54
2024-02-07T06:49:51.469Z,10.56
2024-02-07T06:51:54.888Z,10.57
2024-02-07T06:53:57.254Z,10.59
2024-02-07T06:56:02.044Z,10.59
2024-02-07T06:58:05.726Z,10.61
2024-02-07T07:00:10.760Z,10.63
2024-02-07T07:02:14.639Z,10.65
2024-02-07T07:04:17.072Z,10.67
2024-02-07T07:06:20.502Z,10.71
2024-02-07T07:08:23.927Z,10.73
2024-02-07T07:10:28.120Z,10.75
2024-02-07T07:12:33.084Z,10.79
2024-02-07T07:14:41.209Z,10.81
2024-02-07T07:16:45.683Z,10.85
2024-02-07T07:18:50.775Z,10.89
2024-02-07T07:20:54.317Z,10.94
2024-02-07T07:23:07.536Z,11.00
2024-02-07T07:25:18.758Z,11.09
2024-02-07T07:27:22.066Z,11.18
2024-02-07T07:29:26.788Z,11.29
2024-02-07T07:31:31.699Z,11.41
2024-02-07T07:33:35.507Z,11.50
2024-02-07T07:35:38.992Z,11.57
2024-02-07T07:37:41.486Z,11.59
2024-02-07T07:39:44.859Z,11.62
2024-02-07T07:41:49.210Z,11.66
2024-02-07T07:43:53.504Z,11.72
2024-02-07T07:45:58.282Z,11.75
2024-02-07T07:48:00.722Z,11.78
2024-02-07T07:50:08.678Z,11.88
2024-02-07T07:52:12.922Z,12.02
2024-02-07T07:54:16.342Z,12.20
2024-02-07T07:56:19.643Z,12.40
2024-02-07T07:58:27.148Z,12.56
2024-02-07T08:00:35.177Z,12.75
2024-02-07T08:02:41.565Z,12.90
2024-02-07T08:04:45.063Z,13.00
2024-02-07T08:06:49.007Z,13.06
2024-02-07T08:08:51.469Z,13.06
2024-02-07T08:10:54.733Z,13.05
2024-02-07T08:12:57.931Z,13.03
2024-02-07T08:15:01.220Z,13.03
2024-02-07T08:17:05.040Z,13.01
2024-02-07T08:19:10.134Z,12.98
2024-02-07T08:21:13.408Z,12.97
2024-02-07T08:23:16.828Z,13.00
2024-02-07T08:25:22.506Z,13.03
2024-02-07T08:27:27.153Z,13.06
2024-02-07T08:29:31.434Z,13.09
2024-02-07T08:31:34.744Z,13.13
2024-02-07T08:33:38.955Z,13.18
2024-02-07T08:35:43.946Z,13.25
2024-02-07T08:37:47.772Z,13.37
2024-02-07T08:39:51.056Z,13.50
2024-02-07T08:41:55.861Z,13.64
2024-02-07T08:43:59.924Z,13.82
2024-02-07T08:46:02.231Z,13.98
2024-02-07T08:48:07.436Z,14.11
2024-02-07T08:50:11.884Z,14.27
2024-02-07T08:52:16.636Z,14.41
2024-02-07T08:54:20.244Z,14.59
2024-02-07T08:56:24.024Z,14.71
2024-02-07T08:58:27.390Z,14.82
2024-02-07T09:00:30.878Z,14.90
2024-02-07T09:02:34.250Z,14.94
2024-02-07T09:04:37.760Z,15.03
2024-02-07T09:06:41.116Z,15.12
2024-02-07T09:08:45.819Z,15.15
2024-02-07T09:10:49.150Z,15.23
2024-02-07T09:12:52.441Z,15.26
2024-02-07T09:14:56.395Z,15.26
2024-02-07T09:17:00.636Z,15.19
2024-02-07T09:19:03.987Z,15.09
2024-02-07T09:21:07.368Z,14.98
2024-02-07T09:23:10.676Z,14.88
2024-02-07T09:25:14.785Z,14.78
2024-02-07T09:27:19.931Z,14.73
2024-02-07T09:29:23.914Z,14.67
2024-02-07T09:31:27.384Z,14.63
2024-02-07T09:33:30.941Z,14.64
2024-02-07T09:35:34.332Z,14.66
2024-02-07T09:37:38.073Z,14.68
2024-02-07T09:39:41.484Z,14.70
2024-02-07T09:41:48.236Z,14.70
2024-02-07T09:43:57.381Z,14.68
2024-02-07T09:46:01.680Z,14.64
2024-02-07T09:48:20.261Z,14.60
2024-02-07T09:50:24.940Z,14.60
2024-02-07T09:52:32.623Z,14.55
2024-02-07T09:54:36.081Z,14.54
2024-02-07T09:56:40.598Z,14.53
2024-02-07T09:58:45.934Z,14.52
2024-02-07T10:00:52.693Z,14.51
2024-02-07T10:02:57.219Z,14.55
2024-02-07T10:05:06.460Z,14.55
2024-02-07T10:07:13.439Z,14.57
2024-02-07T10:09:18.321Z,14.58
2024-02-07T10:11:23.702Z,14.62
2024-02-07T10:13:27.417Z,14.69
2024-02-07T10:15:33.161Z,14.72
2024-02-07T10:17:36.499Z,14.79
2024-02-07T10:19:40.770Z,14.86
2024-02-07T10:21:44.085Z,15.00
2024-02-07T10:23:49.579Z,15.20
2024-02-07T10:25:53.752Z,15.29
2024-02-07T10:28:04.728Z,15.31
2024-02-07T10:30:10.143Z,15.35
2024-02-07T10:32:21.925Z,15.38
2024-02-07T10:34:25.556Z,15.41
2024-02-07T10:36:29.091Z,15.45
2024-02-07T10:38:35.353Z,15.43
2024-02-07T10:40:40.636Z,15.47
2024-02-07T10:42:44.026Z,15.50
2024-02-07T10:44:47.376Z,15.51
2024-02-07T10:46:59.918Z,15.50
2024-02-07T10:49:05.725Z,15.52
2024-02-07T10:51:09.221Z,15.55
2024-02-07T10:53:12.944Z,15.53
2024-02-07T10:55:16.770Z,15.49
2024-02-07T10:57:26.790Z,15.46
2024-02-07T10:59:32.162Z,15.48
2024-02-07T11:01:35.736Z,15.51
2024-02-07T11:03:39.988Z,15.55
2024-02-07T11:05:44.637Z,15.59
2024-02-07T11:07:49.426Z,15.64
2024-02-07T11:09:54.716Z,15.67
2024-02-07T11:11:59.085Z,15.68
2024-02-07T11:14:06.781Z,15.68
2024-02-07T11:16:10.402Z,15.71
2024-02-07T11:18:14.641Z,15.75
2024-02-07T11:20:19.308Z,15.75
2024-02-07T11:22:30.326Z,15.71
2024-02-07T11:24:36.018Z,15.73
2024-02-07T11:26:39.864Z,15.71
2024-02-07T11:28:43.795Z,15.68
2024-02-07T11:30:50.424Z,15.64
2024-02-07T11:32:53.592Z,15.60
2024-02-07T11:35:03.228Z,15.56
2024-02-07T11:37:10.765Z,15.50
2024-02-07T11:39:18.317Z,15.46
2024-02-07T11:41:21.804Z,15.50
2024-02-07T11:43:25.652Z,15.51
2024-02-07T11:45:29.798Z,15.51
2024-02-07T11:47:38.458Z,15.51
2024-02-07T11:49:42.525Z,15.51
2024-02-07T11:51:46.023Z,15.46
2024-02-07T11:53:49.263Z,15.41
2024-02-07T11:55:54.283Z,15.36
2024-02-07T11:57:58.333Z,15.31
2024-02-07T12:00:03.288Z,15.28
2024-02-07T12:02:08.318Z,15.28
2024-02-07T12:04:11.763Z,15.25
2024-02-07T12:06:15.294Z,15.22
2024-02-07T12:08:19.675Z,15.17
2024-02-07T12:10:23.445Z,15.15
2024-02-07T12:12:28.727Z,15.13
2024-02-07T12:14:32.006Z,15.13
2024-02-07T12:16:36.304Z,15.10
2024-02-07T12:18:39.640Z,15.07
2024-02-07T12:20:43.126Z,15.07
2024-02-07T12:22:48.673Z,15.04
2024-02-07T12:24:53.337Z,15.03
2024-02-07T12:26:56.677Z,15.00
2024-02-07T12:29:07.489Z,14.99
2024-02-07T12:31:10.968Z,14.98
2024-02-07T12:33:14.420Z,14.96
2024-02-07T12:35:19.581Z,14.91
2024-02-07T12:37:23.416Z,14.91
2024-02-07T12:39:26.836Z,14.89
2024-02-07T12:41:30.099Z,14.87
2024-02-07T12:43:33.393Z,14.87
2024-02-07T12:45:38.061Z,14.86
2024-02-07T12:47:42.564Z,14.87
2024-02-07T12:49:45.574Z,14.87
2024-02-07T12:51:49.641Z,14.87
2024-02-07T12:53:53.187Z,14.88
2024-02-07T12:55:56.769Z,14.88
2024-02-07T12:58:02.361Z,14.85
2024-02-07T13:00:13.553Z,14.84
2024-02-07T13:02:19.192Z,14.87
2024-02-07T13:04:22.719Z,14.90
2024-02-07T13:06:26.562Z,14.90
2024-02-07T13:08:28.968Z,14.90
2024-02-07T13:10:32.515Z,14.87
2024-02-07T13:12:36.940Z,14.88
2024-02-07T13:14:40.591Z,14.88
2024-02-07T13:16:44.967Z,14.87
2024-02-07T13:18:48.824Z,14.84
2024-02-07T13:20:52.460Z,14.86
2024-02-07T13:22:55.877Z,14.84
2024-02-07T13:25:02.694Z,14.85
2024-02-07T13:27:07.645Z,14.88
2024-02-07T13:29:11.929Z,14.88
2024-02-07T13:31:15.639Z,14.89
2024-02-07T13:33:18.972Z,14.90
2024-02-07T13:35:23.716Z,14.88
2024-02-07T13:37:27.084Z,14.89
2024-02-07T13:39:30.515Z,14.88
2024-02-07T13:41:34.357Z,14.87
2024-02-07T13:43:37.899Z,14.86
2024-02-07T13:45:40.192Z,14.86
2024-02-07T13:47:43.579Z,14.84
2024-02-07T13:49:47.052Z,14.84
2024-02-07T13:51:50.945Z,14.83
2024-02-07T13:53:55.270Z,14.83
2024-02-07T13:55:59.098Z,14.83
2024-02-07T13:58:02.491Z,14.82
2024-02-07T14:00:07.322Z,14.83
2024-02-07T14:02:11.142Z,14.84
2024-02-07T14:04:14.646Z,14.86
2024-02-07T14:06:17.977Z,14.89
2024-02-07T14:08:22.896Z,14.88
2024-02-07T14:10:26.318Z,14.88
2024-02-07T14:12:30.060Z,14.86
2024-02-07T14:14:33.620Z,14.83
2024-02-07T14:16:37.767Z,14.82
2024-02-07T14:18:41.173Z,14.80
2024-02-07T14:20:44.715Z,14.79
2024-02-07T14:22:48.214Z,14.76
2024-02-07T14:24:52.876Z,14.79
2024-02-07T14:26:56.140Z,14.83
2024-02-07T14:31:04.323Z,14.89
2024-02-07T14:33:08.814Z,14.93
2024-02-07T14:35:12.928Z,14.97
2024-02-07T14:37:16.801Z,15.04
2024-02-07T14:39:23.546Z,15.07
2024-02-07T14:41:28.821Z,15.07
2024-02-07T14:43:31.912Z,15.12
2024-02-07T14:45:35.468Z,15.19
2024-02-07T14:47:38.982Z,15.21
2024-02-07T14:49:42.427Z,15.21
2024-02-07T14:51:45.824Z,15.19
2024-02-07T14:53:49.108Z,15.16
2024-02-07T14:55:54.060Z,15.12
2024-02-07T14:57:57.766Z,15.09
2024-02-07T15:00:01.468Z,15.10
2024-02-07T15:02:05.098Z,15.06
2024-02-07T15:04:08.383Z,15.05
2024-02-07T15:06:12.031Z,15.04
2024-02-07T15:08:16.385Z,14.99
2024-02-07T15:10:18.985Z,14.97
2024-02-07T15:12:23.481Z,14.93
2024-02-07T15:14:28.109Z,14.90
2024-02-07T15:16:32.981Z,14.90
2024-02-07T15:18:36.414Z,14.88
2024-02-07T15:20:41.721Z,14.86
2024-02-07T15:22:44.429Z,14.84
2024-02-07T15:24:47.697Z,14.82
2024-02-07T15:26:51.113Z,14.78
2024-02-07T15:28:54.414Z,14.74
2024-02-07T15:30:59.502Z,14.71
2024-02-07T15:33:03.756Z,14.69
2024-02-07T15:35:09.167Z,14.65
2024-02-07T15:37:12.542Z,14.62
2024-02-07T15:39:15.869Z,14.61
2024-02-07T15:41:19.438Z,14.59
2024-02-07T15:43:23.925Z,14.58
2024-02-07T15:45:27.287Z,14.57
2024-02-07T15:47:32.050Z,14.56
2024-02-07T15:49:38.663Z,14.56
2024-02-07T15:51:42.156Z,14.55
2024-02-07T15:53:45.395Z,14.52
2024-02-07T15:55:48.965Z,14.51
2024-02-07T15:57:51.800Z,14.47
2024-02-07T15:59:55.120Z,14.46
2024-02-07T16:01:58.933Z,14.45
2024-02-07T16:04:03.702Z,14.42
2024-02-07T16:06:07.213Z,14.43
2024-02-07T16:08:11.019Z,14.42
2024-02-07T16:10:15.478Z,14.40
2024-02-07T16:12:18.855Z,14.39
2024-02-07T16:14:22.791Z,14.37
2024-02-07T16:16:26.136Z,14.37
2024-02-07T16:18:32.072Z,14.37
2024-02-07T16:20:38.532Z,14.34
2024-02-07T16:22:42.012Z,14.34
2024-02-07T16:24:45.652Z,14.34
2024-02-07T16:26:49.297Z,14.33
2024-02-07T16:28:52.786Z,14.32
2024-02-07T16:30:56.037Z,14.31
2024-02-07T16:32:59.461Z,14.29
2024-02-07T16:35:04.506Z,14.28
2024-02-07T16:37:10.399Z,14.26
2024-02-07T16:39:13.949Z,14.26
2024-02-07T16:41:17.477Z,14.26
2024-02-07T16:43:21.647Z,14.25
2024-02-07T16:45:25.089Z,14.23
2024-02-07T16:47:28.951Z,14.22
2024-02-07T16:49:33.428Z,14.20
2024-02-07T16:51:37.331Z,14.20
2024-02-07T16:53:42.151Z,14.17
2024-02-07T16:55:45.669Z,14.17
2024-02-07T16:57:49.263Z,14.16
2024-02-07T16:59:52.768Z,14.14
2024-02-07T17:01:56.241Z,14.14
2024-02-07T17:03:59.634Z,14.14
2024-02-07T17:06:02.230Z,14.11
2024-02-07T17:08:07.157Z,14.10
2024-02-07T17:10:12.239Z,14.08
2024-02-07T17:12:14.606Z,14.08
2024-02-07T17:14:18.041Z,14.07
2024-02-07T17:16:21.436Z,14.07
2024-02-07T17:18:24.863Z,14.07
2024-02-07T17:20:28.278Z,14.06
2024-02-07T17:22:33.924Z,14.05
2024-02-07T17:24:41.239Z,14.01
2024-02-07T17:26:48.026Z,13.99
2024-02-07T17:28:53.717Z,13.99
2024-02-07T17:30:57.154Z,13.98
2024-02-07T17:33:01.801Z,13.97
2024-02-07T17:35:06.239Z,13.95
2024-02-07T17:37:09.774Z,13.95
2024-02-07T17:39:15.075Z,13.94
2024-02-07T17:41:19.528Z,13.93
2024-02-07T17:43:24.270Z,13.93
2024-02-07T17:45:27.556Z,13.91
2024-02-07T17:47:31.319Z,13.92
2024-02-07T17:49:34.741Z,13.92
2024-02-07T17:51:42.308Z,13.93
2024-02-07T17:53:45.654Z,13.92
2024-02-07T17:55:48.064Z,13.93
2024-02-07T17:57:52.247Z,13.92
2024-02-07T17:59:57.189Z,13.94
2024-02-07T18:02:01.134Z,13.96
2024-02-07T18:04:04.904Z,13.97
2024-02-07T18:06:08.968Z,13.99
2024-02-07T18:08:12.430Z,13.99
2024-02-07T18:10:16.066Z,13.99
2024-02-07T18:12:19.344Z,13.96
2024-02-07T18:14:22.813Z,13.95
2024-02-07T18:16:27.636Z,13.93
2024-02-07T18:18:31.085Z,13.94
2024-02-07T18:20:34.854Z,13.95
2024-02-07T18:22:38.796Z,13.96
2024-02-07T18:24:42.321Z,13.96
2024-02-07T18:26:48.172Z,13.99
2024-02-07T18:28:51.642Z,13.99
2024-02-07T18:30:54.976Z,14.01
2024-02-07T18:32:59.650Z,13.98
2024-02-07T18:35:03.046Z,13.99
2024-02-07T18:37:09.208Z,13.98
2024-02-07T18:39:12.602Z,13.95
2024-02-07T18:41:16.045Z,13.96
2024-02-07T18:43:19.336Z,13.98
2024-02-07T18:45:22.630Z,13.97
2024-02-07T18:47:26.504Z,13.95
2024-02-07T18:49:31.478Z,13.94
2024-02-07T18:51:37.494Z,13.95
2024-02-07T18:53:41.795Z,13.95
2024-02-07T18:55:45.221Z,13.94
2024-02-07T18:57:47.549Z,13.92
2024-02-07T18:59:50.790Z,13.92
2024-02-07T19:01:54.178Z,13.93
2024-02-07T19:03:57.470Z,13.92
2024-02-07T19:06:02.451Z,13.90
2024-02-07T19:08:06.752Z,13.88
2024-02-07T19:10:11.105Z,13.89
2024-02-07T19:12:14.372Z,13.89
2024-02-07T19:14:17.825Z,13.89
2024-02-07T19:16:22.635Z,13.88
2024-02-07T19:18:26.270Z,13.87
2024-02-07T19:20:29.723Z,13.85
2024-02-07T19:22:34.428Z,13.84
2024-02-07T19:24:38.080Z,13.85
2024-02-07T19:26:41.759Z,13.85
2024-02-07T19:28:45.128Z,13.86
2024-02-07T19:30:49.145Z,13.86
2024-02-07T19:32:51.518Z,13.85
2024-02-07T19:34:55.201Z,13.83
2024-02-07T19:36:58.957Z,13.82
2024-02-07T19:39:03.921Z,13.83
2024-02-07T19:41:07.420Z,13.81
2024-02-07T19:43:11.147Z,13.78
2024-02-07T19:45:14.407Z,13.73
2024-02-07T19:47:17.766Z,13.72
2024-02-07T19:49:21.148Z,13.72
2024-02-07T19:51:23.692Z,13.70
2024-02-07T19:53:27.012Z,13.70
2024-02-07T19:55:31.768Z,13.67
2024-02-07T19:57:35.046Z,13.66
2024-02-07T19:59:38.355Z,13.66
2024-02-07T20:01:41.714Z,13.63
2024-02-07T20:03:45.169Z,13.58
2024-02-07T20:05:49.799Z,13.55
2024-02-07T20:07:53.463Z,13.51
2024-02-07T20:09:57.524Z,13.51
2024-02-07T20:12:02.804Z,13.50
2024-02-07T20:14:05.545Z,13.51
2024-02-07T20:16:09.142Z,13.50
2024-02-07T20:18:14.537Z,13.50
2024-02-07T20:20:18.312Z,13.52
2024-02-07T20:22:21.950Z,13.51
2024-02-07T20:24:25.952Z,13.50
2024-02-07T20:26:30.732Z,13.47
2024-02-07T20:28:36.345Z,13.45
2024-02-07T20:30:40.624Z,13.45
2024-02-07T20:32:44.009Z,13.44
2024-02-07T20:34:47.496Z,13.42
2024-02-07T20:36:52.676Z,13.41
2024-02-07T20:38:56.004Z,13.38
2024-02-07T20:40:59.722Z,13.36
2024-02-07T20:43:03.728Z,13.34
2024-02-07T20:45:09.151Z,13.33
2024-02-07T20:47:12.735Z,13.35
2024-02-07T20:49:16.475Z,13.36
2024-02-07T20:51:19.864Z,13.38
2024-02-07T20:53:23.414Z,13.37
2024-02-07T20:55:26.718Z,13.37
2024-02-07T20:57:31.056Z,13.36
2024-02-07T20:59:34.577Z,13.38
2024-02-07T21:01:39.765Z,13.35
2024-02-07T21:03:43.035Z,13.37
2024-02-07T21:05:47.565Z,13.37
2024-02-07T21:07:51.030Z,13.36
2024-02-07T21:09:54.393Z,13.35
2024-02-07T21:11:57.652Z,13.33
2024-02-07T21:14:02.370Z,13.30
2024-02-07T21:16:06.548Z,13.31
2024-02-07T21:18:11.192Z,13.31
2024-02-07T21:20:16.199Z,13.32
2024-02-07T21:22:19.806Z,13.32
2024-02-07T21:24:23.063Z,13.31
2024-02-07T21:26:26.489Z,13.28
2024-02-07T21:28:29.805Z,13.28
2024-02-07T21:30:33.778Z,13.27
2024-02-07T21:32:39.424Z,13.23
2024-02-07T21:34:44.311Z,13.24
2024-02-07T21:36:48.835Z,13.24
2024-02-07T21:38:52.179Z,13.24
2024-02-07T21:40:55.498Z,13.21
2024-02-07T21:42:58.830Z,13.20
2024-02-07T21:45:04.047Z,13.21
2024-02-07T21:47:07.975Z,13.20
2024-02-07T21:49:11.316Z,13.20
2024-02-07T21:51:19.356Z,13.18
2024-02-07T21:53:23.730Z,13.17
2024-02-07T21:55:27.970Z,13.12
2024-02-07T21:57:31.451Z,13.09
2024-02-07T21:59:33.790Z,13.06
2024-02-07T22:01:37.188Z,13.03
2024-02-07T22:03:40.501Z,13.00
2024-02-07T22:05:43.735Z,13.00
2024-02-07T22:07:48.504Z,12.99
2024-02-07T22:09:51.952Z,13.02
2024-02-07T22:11:55.979Z,13.00
2024-02-07T22:13:59.246Z,12.98
2024-02-07T22:16:01.630Z,12.97
2024-02-07T22:18:05.559Z,12.93
2024-02-07T22:20:11.442Z,12.94
2024-02-07T22:22:14.813Z,12.93
2024-02-07T22:24:19.797Z,12.91
2024-02-07T22:26:22.044Z,12.89
2024-02-07T22:28:25.388Z,12.87
2024-02-07T22:30:28.637Z,12.84
2024-02-07T22:32:31.129Z,12.83
2024-02-07T22:34:35.360Z,12.79
2024-02-07T22:36:38.806Z,12.76
2024-02-07T22:38:41.280Z,12.74
2024-02-07T22:40:46.342Z,12.72
2024-02-07T22:42:50.044Z,12.69
2024-02-07T22:44:53.433Z,12.68
2024-02-07T22:46:57.788Z,12.66
2024-02-07T22:49:01.179Z,12.65
2024-02-07T22:51:04.743Z,12.65
2024-02-07T22:53:08.230Z,12.64
2024-02-07T22:55:11.613Z,12.63
2024-02-07T22:57:18.187Z,12.63
2024-02-07T22:59:23.196Z,12.62
2024-02-07T23:01:27.476Z,12.60
2024-02-07T23:03:29.895Z,12.58
2024-02-07T23:05:33.296Z,12.58
2024-02-07T23:07:35.585Z,12.59
2024-02-07T23:09:39.011Z,12.57
2024-02-07T23:11:42.264Z,12.54
2024-02-07T23:13:47.047Z,12.50
2024-02-07T23:15:50.743Z,12.50
2024-02-07T23:17:54.184Z,12.50
2024-02-07T23:19:56.523Z,12.49
2024-02-07T23:21:59.932Z,12.50
2024-02-07T23:24:03.210Z,12.50
2024-02-07T23:26:06.826Z,12.50
2024-02-07T23:28:10.972Z,12.51
2024-02-07T23:30:16.522Z,12.49
2024-02-07T23:32:19.800Z,12.49
2024-02-07T23:34:23.494Z,12.49
2024-02-07T23:36:26.845Z,12.48
2024-02-07T23:38:30.829Z,12.47
2024-02-07T23:40:34.095Z,12.44
2024-02-07T23:42:36.455Z,12.45
2024-02-07T23:44:39.740Z,12.43
2024-02-07T23:46:44.471Z,12.42
2024-02-07T23:48:48.069Z,12.43
2024-02-07T23:50:51.558Z,12.43
2024-02-07T23:52:55.034Z,12.45
2024-02-07T23:54:58.362Z,12.44
2024-02-07T23:57:02.237Z,12.42
2024-02-07T23:59:05.718Z,12.42
